Home   Weather   Germany   Ludwigsfelde   Past weeks
Flag for Germany

Past Weather in Ludwigsfelde, Brandenburg, Germany — Yesterday and Last 2 Weeks

Currently: 79 °F. Passing clouds. (Weather station: Berlin-Schoenefeld, Germany). See more current weather

Past Weather in Ludwigsfelde — Graph

°F

Ludwigsfelde Temperature Yesterday

Maximum temperature yesterday: 73 °F (at 3:50 pm)
Minimum temperature yesterday: 52 °F (at 3:20 am)
Average temperature yesterday: 64 °F

High & Low Weather Summary for the Past Weeks

 TemperatureHumidityPressure
High81 °F (Jun 18, 3:50 pm)100% (Jun 11, 12:20 am)30.24 "Hg (Jun 11, 12:20 am)
Low45 °F (Jun 12, 3:20 am)29% (Jun 9, 4:50 pm)29.65 "Hg (Jun 10, 5:50 pm)
Average62 °F66%29.91 "Hg
* Reported Jun 6 11:20 am — Jun 21 11:20 am, Ludwigsfelde. Weather by CustomWeather, © 2024

Note: Actual official high and low records may vary slightly from our data, if they occured in-between our weather recording intervals... More about our weather records

Ludwigsfelde Weather History for the Previous 24 Hours

Scroll right to see more
 ConditionsComfort  
Time TempWeatherWind HumidityBarometerVisibility
11:20 am
Fri, Jun 21
75 °FPassing clouds.8 mph61%29.95 "HgN/A
10:50 am73 °FPassing clouds.6 mph65%29.95 "HgN/A
10:20 am72 °FPassing clouds.8 mph69%29.98 "HgN/A
9:50 am68 °FSunny.9 mph73%29.98 "Hg10 mi
9:20 am66 °FSunny.7 mph78%29.98 "Hg10 mi
8:50 am66 °FSunny.7 mph73%29.98 "Hg10 mi
8:20 am66 °FSunny.5 mph73%29.98 "Hg10 mi
7:50 am64 °FPassing clouds.3 mph78%30.01 "HgN/A
7:20 am64 °FSunny.7 mph73%29.98 "Hg10 mi
6:50 am64 °FPassing clouds.8 mph78%29.98 "HgN/A
6:20 am63 °FSunny.3 mph77%29.98 "Hg10 mi
5:50 am61 °FPassing clouds.3 mph83%30.01 "HgN/A
5:20 am61 °FSunny.9 mph83%30.01 "Hg10 mi
4:20 am61 °FClear.5 mph83%30.01 "Hg10 mi
3:50 am61 °FClear.5 mph83%30.04 "Hg10 mi
3:20 am61 °FClear.7 mph83%30.04 "Hg10 mi
2:50 am61 °FClear.5 mph77%30.04 "Hg10 mi
2:20 am61 °FClear.5 mph83%30.04 "Hg10 mi
1:50 am61 °FClear.6 mph77%30.04 "Hg10 mi
1:20 am63 °FClear.6 mph77%30.07 "Hg10 mi
12:50 am64 °FClear.3 mph73%30.07 "Hg10 mi
12:20 am63 °FClear.3 mph77%30.07 "Hg10 mi
11:50 pm
Thu, Jun 20
64 °FClear.5 mph73%30.07 "Hg10 mi
11:20 pm64 °FPassing clouds.6 mph73%30.07 "HgN/A
10:50 pm66 °FClear.5 mph68%30.07 "Hg10 mi
10:20 pm66 °FClear.5 mph64%30.07 "Hg10 mi
9:50 pm66 °FClear.6 mph64%30.07 "Hg10 mi
9:20 pm68 °FSunny.5 mph60%30.07 "Hg10 mi
8:50 pm68 °FPassing clouds.7 mph60%30.07 "HgN/A
8:20 pm70 °FSunny.6 mph57%30.09 "Hg10 mi
7:50 pm70 °FSunny.6 mph53%30.09 "Hg10 mi
7:20 pm72 °FPassing clouds.5 mph50%30.09 "HgN/A
6:50 pm72 °FSunny.5 mph50%30.09 "Hg10 mi
6:20 pm73 °FPassing clouds.3 mph47%30.09 "HgN/A
5:50 pm73 °FPassing clouds.6 mph47%30.09 "HgN/A
5:20 pm73 °FSunny.5 mph47%30.12 "Hg10 mi
4:50 pm73 °FSunny.3 mph47%30.12 "Hg10 mi
4:20 pm73 °FSunny.3 mph47%30.12 "Hg10 mi
3:50 pm73 °FPassing clouds.5 mph44%30.15 "HgN/A
3:20 pm72 °FPassing clouds.6 mph47%30.15 "HgN/A
2:50 pm72 °FScattered clouds.3 mph50%30.18 "HgN/A
2:20 pm72 °FScattered clouds.6 mph47%30.18 "HgN/A
1:20 pm70 °FPassing clouds.6 mph53%30.18 "HgN/A
12:50 pm68 °FScattered clouds.7 mph53%30.21 "HgN/A
12:20 pm70 °FScattered clouds.8 mph53%30.21 "HgN/A
Weather by CustomWeather, © 2024

See weather overview